< < Back
Terminal Aerodrome Forecast


Current Version              Previous Versions:   1  2  3  4  5  6  7  8  9  

Terminal Aerodrome Forecast

372
FTUS44 KOHX 272332
TAFBNA
TAF
KBNA 272332Z 2800/2824 23003KT P6SM FEW060 SCT250
      TEMPO 2809/2813 3SM BR
     FM281300 23003KT P6SM SCT050
     FM281900 32006KT P6SM VCTS SCT050CB=

Latest METAR

485
SAUS70 KWBC 280600 RRI
MTRBNA
METAR KBNA 280553Z 00000KT 8SM BKN250 27/24 A2998 RMK AO2 SLP144
T02720244 10322 20261 403440233 57004 $


USA.gov is the U.S. government's official web portal to all federal, state and local government web resources and services.